65.7°F
Current conditions from King Hill
Updated every 5 minutes
 
  Tuesday September 2, 2014

Station Historical Data
Daily Summary for April 20, 2012 Units:  Both    English   Metric
« Previous Day
Next Day »
Daily Weekly Monthly Yearly Custom
  High: Low: Average:
Temperature: 72.6 °F /  22.6 °C 44.8 °F /  7.1 °C 54.7 °F /  12.6 °C
Dew Point: 49.4 °F /  9.7 °C 38.5 °F /  3.6 °C 42.6 °F /  5.9 °C
Humidity: 86% 43% 65%
Wind Speed: 9.0mph /  14.5km/h - 2.3mph /  3.7km/h
Wind Gust: 18.0mph /  29km/h - -
Wind- - SW
Pressure: 29.91 in /  1012.8 hPa 29.68 in /  1005 hPa -
Precipitation: 0.00 in /  0 mm    
Historical Graphs
 
 
Tabular Data for April 20, 2012
Time Temperature Dew Point Pressure Wind Wind Speed Wind Gust Humidity Daily Rainfall
00:04 57.7 °F /  14.3 °C 40.7 °F /  4.8 °C 29.88in /  1011.7hPa Calm   6.0mph /  9.7km/h 53% 0.00in /  0mm
00:09 57.0 °F /  13.9 °C 40.0 °F /  4.4 °C 29.88in /  1011.7hPa Calm   6.0mph /  9.7km/h 53% 0.00in /  0mm
00:14 56.3 °F /  13.5 °C 39.9 °F /  4.4 °C 29.88in /  1011.7hPa Calm   4.0mph /  6.4km/h 54% 0.00in /  0mm
00:19 55.3 °F /  12.9 °C 39.9 °F /  4.4 °C 29.88in /  1011.7hPa Calm   3.0mph /  4.8km/h 56% 0.00in /  0mm
00:24 54.6 °F /  12.6 °C 39.7 °F /  4.3 °C 29.88in /  1011.7hPa Calm   4.0mph /  6.4km/h 57% 0.00in /  0mm
00:29 53.8 °F /  12.1 °C 39.4 °F /  4.1 °C 29.88in /  1011.7hPa Calm   5.0mph /  8km/h 58% 0.00in /  0mm
00:34 53.2 °F /  11.8 °C 39.3 °F /  4.1 °C 29.88in /  1011.7hPa Calm   5.0mph /  8km/h 59% 0.00in /  0mm
00:39 53.4 °F /  11.9 °C 39.0 °F /  3.9 °C 29.88in /  1011.7hPa SSW 3.0mph /  4.8km/h 7.0mph /  11.3km/h 58% 0.00in /  0mm
00:45 54.0 °F /  12.2 °C 39.1 °F /  3.9 °C 29.88in /  1011.7hPa SSW 1.0mph /  1.6km/h 7.0mph /  11.3km/h 57% 0.00in /  0mm
00:49 53.9 °F /  12.2 °C 39.0 °F /  3.9 °C 29.88in /  1011.7hPa SSW 1.0mph /  1.6km/h 7.0mph /  11.3km/h 57% 0.00in /  0mm
00:54 53.7 °F /  12.1 °C 39.3 °F /  4.1 °C 29.88in /  1011.7hPa SSW 4.0mph /  6.4km/h 5.0mph /  8km/h 58% 0.00in /  0mm
00:59 53.7 °F /  12.1 °C 39.3 °F /  4.1 °C 29.88in /  1011.7hPa Calm   5.0mph /  8km/h 58% 0.00in /  0mm
01:04 53.7 °F /  12.1 °C 39.3 °F /  4.1 °C 29.88in /  1011.7hPa Calm   5.0mph /  8km/h 58% 0.00in /  0mm
01:09 53.8 °F /  12.1 °C 39.4 °F /  4.1 °C 29.88in /  1011.7hPa SSW 1.0mph /  1.6km/h 6.0mph /  9.7km/h 58% 0.00in /  0mm
01:14 53.8 °F /  12.1 °C 39.4 °F /  4.1 °C 29.88in /  1011.7hPa Calm   6.0mph /  9.7km/h 58% 0.00in /  0mm
01:19 53.5 °F /  11.9 °C 39.5 °F /  4.2 °C 29.88in /  1011.7hPa Calm   4.0mph /  6.4km/h 59% 0.00in /  0mm
01:24 53.5 °F /  11.9 °C 39.5 °F /  4.2 °C 29.88in /  1011.7hPa Calm   5.0mph /  8km/h 59% 0.00in /  0mm
01:29 53.6 °F /  12 °C 39.6 °F /  4.2 °C 29.88in /  1011.7hPa SSW 2.0mph /  3.2km/h 5.0mph /  8km/h 59% 0.00in /  0mm
01:34 54.0 °F /  12.2 °C 40.9 °F /  4.9 °C 29.88in /  1011.7hPa SSW 1.0mph /  1.6km/h 5.0mph /  8km/h 61% 0.00in /  0mm
01:39 54.1 °F /  12.3 °C 40.1 °F /  4.5 °C 29.88in /  1011.7hPa SSW 1.0mph /  1.6km/h 5.0mph /  8km/h 59% 0.00in /  0mm
01:45 54.2 °F /  12.3 °C 39.8 °F /  4.3 °C 29.88in /  1011.7hPa SSW 1.0mph /  1.6km/h 5.0mph /  8km/h 58% 0.00in /  0mm
01:55 54.0 °F /  12.2 °C 40.0 °F /  4.4 °C 29.88in /  1011.7hPa SSW 1.0mph /  1.6km/h 4.0mph /  6.4km/h 59% 0.00in /  0mm
02:04 54.1 °F /  12.3 °C 40.1 °F /  4.5 °C 29.88in /  1011.7hPa Calm   4.0mph /  6.4km/h 59% 0.00in /  0mm
02:09 53.7 °F /  12.1 °C 39.7 °F /  4.3 °C 29.88in /  1011.7hPa Calm   3.0mph /  4.8km/h 59% 0.00in /  0mm
02:14 53.4 °F /  11.9 °C 39.9 °F /  4.4 °C 29.88in /  1011.7hPa Calm   1.0mph /  1.6km/h 60% 0.00in /  0mm
02:19 52.9 °F /  11.6 °C 39.8 °F /  4.3 °C 29.88in /  1011.7hPa SSW 1.0mph /  1.6km/h 3.0mph /  4.8km/h 61% 0.00in /  0mm
02:24 52.7 °F /  11.5 °C 39.6 °F /  4.2 °C 29.88in /  1011.7hPa Calm   4.0mph /  6.4km/h 61% 0.00in /  0mm
02:34 52.8 °F /  11.6 °C 39.3 °F /  4.1 °C 29.88in /  1011.7hPa SSW 2.0mph /  3.2km/h 5.0mph /  8km/h 60% 0.00in /  0mm
02:39 53.4 °F /  11.9 °C 39.9 °F /  4.4 °C 29.87in /  1011.4hPa Calm   5.0mph /  8km/h 60% 0.00in /  0mm
02:44 53.6 °F /  12 °C 40.1 °F /  4.5 °C 29.87in /  1011.4hPa SSW 2.0mph /  3.2km/h 4.0mph /  6.4km/h 60% 0.00in /  0mm
02:49 53.4 °F /  11.9 °C 39.9 °F /  4.4 °C 29.87in /  1011.4hPa Calm   4.0mph /  6.4km/h 60% 0.00in /  0mm
02:54 52.7 °F /  11.5 °C 39.2 °F /  4 °C 29.87in /  1011.4hPa Calm   4.0mph /  6.4km/h 60% 0.00in /  0mm
02:59 52.0 °F /  11.1 °C 39.0 °F /  3.9 °C 29.87in /  1011.4hPa Calm     61% 0.00in /  0mm
03:04 51.2 °F /  10.7 °C 38.6 °F /  3.7 °C 29.87in /  1011.4hPa Calm   4.0mph /  6.4km/h 62% 0.00in /  0mm
03:09 50.8 °F /  10.4 °C 38.7 °F /  3.7 °C 29.87in /  1011.4hPa Calm   4.0mph /  6.4km/h 63% 0.00in /  0mm
03:14 50.7 °F /  10.4 °C 38.6 °F /  3.7 °C 29.87in /  1011.4hPa Calm   2.0mph /  3.2km/h 63% 0.00in /  0mm
03:19 50.8 °F /  10.4 °C 38.7 °F /  3.7 °C 29.87in /  1011.4hPa Calm   1.0mph /  1.6km/h 63% 0.00in /  0mm
03:25 50.5 °F /  10.3 °C 38.8 °F /  3.8 °C 29.87in /  1011.4hPa Calm   3.0mph /  4.8km/h 64% 0.00in /  0mm
03:34 50.6 °F /  10.3 °C 38.5 °F /  3.6 °C 29.87in /  1011.4hPa Calm   3.0mph /  4.8km/h 63% 0.00in /  0mm
03:39 49.6 °F /  9.8 °C 38.7 °F /  3.7 °C 29.88in /  1011.7hPa Calm     66% 0.00in /  0mm
03:45 48.7 °F /  9.3 °C 38.6 °F /  3.7 °C 29.88in /  1011.7hPa Calm     68% 0.00in /  0mm
03:54 48.4 °F /  9.1 °C 38.7 °F /  3.7 °C 29.89in /  1012.1hPa Calm     69% 0.00in /  0mm
03:59 48.4 °F /  9.1 °C 39.1 °F /  3.9 °C 29.88in /  1011.7hPa Calm     70% 0.00in /  0mm
04:04 48.4 °F /  9.1 °C 39.1 °F /  3.9 °C 29.88in /  1011.7hPa Calm     70% 0.00in /  0mm
04:09 48.1 °F /  8.9 °C 38.8 °F /  3.8 °C 29.88in /  1011.7hPa Calm     70% 0.00in /  0mm
04:14 48.2 °F /  9 °C 39.2 °F /  4 °C 29.88in /  1011.7hPa Calm   1.0mph /  1.6km/h 71% 0.00in /  0mm
04:19 48.8 °F /  9.3 °C 39.5 °F /  4.2 °C 29.88in /  1011.7hPa Calm   2.0mph /  3.2km/h 70% 0.00in /  0mm
04:24 49.4 °F /  9.7 °C 40.0 °F /  4.4 °C 29.88in /  1011.7hPa NW 2.0mph /  3.2km/h 8.0mph /  12.9km/h 70% 0.00in /  0mm
04:34 50.3 °F /  10.2 °C 40.9 °F /  4.9 °C 29.88in /  1011.7hPa Calm   5.0mph /  8km/h 70% 0.00in /  0mm
04:39 50.5 °F /  10.3 °C 40.7 °F /  4.8 °C 29.88in /  1011.7hPa Calm     69% 0.00in /  0mm
04:44 50.5 °F /  10.3 °C 40.7 °F /  4.8 °C 29.88in /  1011.7hPa Calm   1.0mph /  1.6km/h 69% 0.00in /  0mm
04:50 50.3 °F /  10.2 °C 40.5 °F /  4.7 °C 29.88in /  1011.7hPa Calm   1.0mph /  1.6km/h 69% 0.00in /  0mm
04:59 50.1 °F /  10.1 °C 40.7 °F /  4.8 °C 29.88in /  1011.7hPa Calm   2.0mph /  3.2km/h 70% 0.00in /  0mm
05:04 49.7 °F /  9.8 °C 40.3 °F /  4.6 °C 29.88in /  1011.7hPa Calm   2.0mph /  3.2km/h 70% 0.00in /  0mm
05:09 49.6 °F /  9.8 °C 40.6 °F /  4.8 °C 29.88in /  1011.7hPa Calm     71% 0.00in /  0mm
05:14 49.4 °F /  9.7 °C 40.4 °F /  4.7 °C 29.88in /  1011.7hPa Calm     71% 0.00in /  0mm
05:19 49.0 °F /  9.4 °C 40.0 °F /  4.4 °C 29.88in /  1011.7hPa Calm     71% 0.00in /  0mm
05:25 48.9 °F /  9.4 °C 39.9 °F /  4.4 °C 29.88in /  1011.7hPa Calm     71% 0.00in /  0mm
05:34 48.2 °F /  9 °C 39.6 °F /  4.2 °C 29.88in /  1011.7hPa Calm     72% 0.00in /  0mm
05:39 48.0 °F /  8.9 °C 39.8 °F /  4.3 °C 29.88in /  1011.7hPa Calm     73% 0.00in /  0mm
05:45 47.2 °F /  8.4 °C 39.0 °F /  3.9 °C 29.87in /  1011.4hPa Calm     73% 0.00in /  0mm
05:50 46.6 °F /  8.1 °C 39.1 °F /  3.9 °C 29.87in /  1011.4hPa Calm     75% 0.00in /  0mm
05:59 46.1 °F /  7.8 °C 38.6 °F /  3.7 °C 29.88in /  1011.7hPa Calm     75% 0.00in /  0mm
06:04 45.6 °F /  7.6 °C 38.8 °F /  3.8 °C 29.88in /  1011.7hPa Calm     77% 0.00in /  0mm
06:09 45.4 °F /  7.4 °C 38.9 °F /  3.8 °C 29.89in /  1012.1hPa Calm     78% 0.00in /  0mm
06:14 45.6 °F /  7.6 °C 39.1 °F /  3.9 °C 29.88in /  1011.7hPa Calm     78% 0.00in /  0mm
06:19 45.5 °F /  7.5 °C 38.7 °F /  3.7 °C 29.88in /  1011.7hPa Calm     77% 0.00in /  0mm
06:24 45.3 °F /  7.4 °C 38.9 °F /  3.8 °C 29.88in /  1011.7hPa Calm     78% 0.00in /  0mm
06:29 45.0 °F /  7.2 °C 38.9 °F /  3.8 °C 29.88in /  1011.7hPa Calm     79% 0.00in /  0mm
06:34 45.0 °F /  7.2 °C 38.9 °F /  3.8 °C 29.88in /  1011.7hPa Calm     79% 0.00in /  0mm
06:39 45.0 °F /  7.2 °C 38.9 °F /  3.8 °C 29.88in /  1011.7hPa Calm     79% 0.00in /  0mm
06:45 44.8 °F /  7.1 °C 39.0 °F /  3.9 °C 29.89in /  1012.1hPa Calm     80% 0.00in /  0mm
06:54 44.8 °F /  7.1 °C 39.3 °F /  4.1 °C 29.89in /  1012.1hPa Calm     81% 0.00in /  0mm
06:59 45.5 °F /  7.5 °C 40.0 °F /  4.4 °C 29.88in /  1011.7hPa Calm     81% 0.00in /  0mm
07:04 45.9 °F /  7.7 °C 40.1 °F /  4.5 °C 29.88in /  1011.7hPa Calm     80% 0.00in /  0mm
07:09 45.9 °F /  7.7 °C 40.1 °F /  4.5 °C 29.88in /  1011.7hPa Calm     80% 0.00in /  0mm
07:14 46.2 °F /  7.9 °C 40.4 °F /  4.7 °C 29.88in /  1011.7hPa Calm     80% 0.00in /  0mm
07:19 46.5 °F /  8.1 °C 40.7 °F /  4.8 °C 29.88in /  1011.7hPa Calm     80% 0.00in /  0mm
07:24 47.2 °F /  8.4 °C 41.4 °F /  5.2 °C 29.89in /  1012.1hPa Calm     80% 0.00in /  0mm
07:29 48.1 °F /  8.9 °C 41.9 °F /  5.5 °C 29.89in /  1012.1hPa Calm     79% 0.00in /  0mm
07:34 49.2 °F /  9.6 °C 42.6 °F /  5.9 °C 29.89in /  1012.1hPa Calm     78% 0.00in /  0mm
07:39 50.2 °F /  10.1 °C 43.3 °F /  6.3 °C 29.89in /  1012.1hPa Calm     77% 0.00in /  0mm
07:44 51.2 °F /  10.7 °C 43.6 °F /  6.4 °C 29.89in /  1012.1hPa Calm     75% 0.00in /  0mm
07:49 51.7 °F /  10.9 °C 43.3 °F /  6.3 °C 29.89in /  1012.1hPa North 2.0mph /  3.2km/h 4.0mph /  6.4km/h 73% 0.00in /  0mm
07:55 51.6 °F /  10.9 °C 42.5 °F /  5.8 °C 29.89in /  1012.1hPa Calm   5.0mph /  8km/h 71% 0.00in /  0mm
08:04 51.5 °F /  10.8 °C 42.8 °F /  6 °C 29.89in /  1012.1hPa Calm   1.0mph /  1.6km/h 72% 0.00in /  0mm
08:09 51.6 °F /  10.9 °C 42.5 °F /  5.8 °C 29.90in /  1012.4hPa Calm   3.0mph /  4.8km/h 71% 0.00in /  0mm
08:14 51.5 °F /  10.8 °C 42.8 °F /  6 °C 29.89in /  1012.1hPa Calm   3.0mph /  4.8km/h 72% 0.00in /  0mm
08:19 51.5 °F /  10.8 °C 42.4 °F /  5.8 °C 29.89in /  1012.1hPa Calm   3.0mph /  4.8km/h 71% 0.00in /  0mm
08:24 51.2 °F /  10.7 °C 42.1 °F /  5.6 °C 29.89in /  1012.1hPa Calm   1.0mph /  1.6km/h 71% 0.00in /  0mm
08:29 51.0 °F /  10.6 °C 42.3 °F /  5.7 °C 29.90in /  1012.4hPa Calm   2.0mph /  3.2km/h 72% 0.00in /  0mm
08:34 50.8 °F /  10.4 °C 42.5 °F /  5.8 °C 29.90in /  1012.4hPa Calm   2.0mph /  3.2km/h 73% 0.00in /  0mm
08:39 50.6 °F /  10.3 °C 41.9 °F /  5.5 °C 29.90in /  1012.4hPa Calm   3.0mph /  4.8km/h 72% 0.00in /  0mm
08:44 50.9 °F /  10.5 °C 42.2 °F /  5.7 °C 29.90in /  1012.4hPa Calm   3.0mph /  4.8km/h 72% 0.00in /  0mm
08:49 51.6 °F /  10.9 °C 43.2 °F /  6.2 °C 29.90in /  1012.4hPa Calm   2.0mph /  3.2km/h 73% 0.00in /  0mm
08:54 52.5 °F /  11.4 °C 43.0 °F /  6.1 °C 29.90in /  1012.4hPa West 1.0mph /  1.6km/h 3.0mph /  4.8km/h 70% 0.00in /  0mm
08:59 53.1 °F /  11.7 °C 42.4 °F /  5.8 °C 29.90in /  1012.4hPa Calm   3.0mph /  4.8km/h 67% 0.00in /  0mm
09:04 53.6 °F /  12 °C 42.9 °F /  6.1 °C 29.91in /  1012.8hPa West 1.0mph /  1.6km/h 3.0mph /  4.8km/h 67% 0.00in /  0mm
09:09 53.7 °F /  12.1 °C 42.6 °F /  5.9 °C 29.91in /  1012.8hPa WNW 2.0mph /  3.2km/h 7.0mph /  11.3km/h 66% 0.00in /  0mm
09:14 53.8 °F /  12.1 °C 42.3 °F /  5.7 °C 29.91in /  1012.8hPa WNW 3.0mph /  4.8km/h 8.0mph /  12.9km/h 65% 0.00in /  0mm
09:19 53.3 °F /  11.8 °C 41.4 °F /  5.2 °C 29.91in /  1012.8hPa NW 3.0mph /  4.8km/h 9.0mph /  14.5km/h 64% 0.00in /  0mm
09:24 52.7 °F /  11.5 °C 40.9 °F /  4.9 °C 29.91in /  1012.8hPa WNW 5.0mph /  8km/h 9.0mph /  14.5km/h 64% 0.00in /  0mm
09:29 52.3 °F /  11.3 °C 40.9 °F /  4.9 °C 29.91in /  1012.8hPa NW 2.0mph /  3.2km/h 8.0mph /  12.9km/h 65% 0.00in /  0mm
09:34 52.4 °F /  11.3 °C 40.6 °F /  4.8 °C 29.91in /  1012.8hPa NW 5.0mph /  8km/h 8.0mph /  12.9km/h 64% 0.00in /  0mm
09:39 51.9 °F /  11.1 °C 40.5 °F /  4.7 °C 29.91in /  1012.8hPa NW 3.0mph /  4.8km/h 7.0mph /  11.3km/h 65% 0.00in /  0mm
09:44 51.8 °F /  11 °C 40.0 °F /  4.4 °C 29.90in /  1012.4hPa NW 4.0mph /  6.4km/h 7.0mph /  11.3km/h 64% 0.00in /  0mm
09:54 52.4 °F /  11.3 °C 40.6 °F /  4.8 °C 29.90in /  1012.4hPa Calm   5.0mph /  8km/h 64% 0.00in /  0mm
09:59 52.7 °F /  11.5 °C 40.1 °F /  4.5 °C 29.90in /  1012.4hPa Calm   2.0mph /  3.2km/h 62% 0.00in /  0mm
10:04 53.2 °F /  11.8 °C 41.3 °F /  5.2 °C 29.89in /  1012.1hPa NW 1.0mph /  1.6km/h 4.0mph /  6.4km/h 64% 0.00in /  0mm
10:09 54.1 °F /  12.3 °C 41.8 °F /  5.4 °C 29.89in /  1012.1hPa WNW 3.0mph /  4.8km/h 6.0mph /  9.7km/h 63% 0.00in /  0mm
10:14 55.6 °F /  13.1 °C 43.2 °F /  6.2 °C 29.89in /  1012.1hPa SW 1.0mph /  1.6km/h 7.0mph /  11.3km/h 63% 0.00in /  0mm
10:19 55.9 °F /  13.3 °C 42.7 °F /  5.9 °C 29.89in /  1012.1hPa SSW 1.0mph /  1.6km/h 7.0mph /  11.3km/h 61% 0.00in /  0mm
10:24 56.2 °F /  13.4 °C 42.5 °F /  5.8 °C 29.89in /  1012.1hPa SW 3.0mph /  4.8km/h 9.0mph /  14.5km/h 60% 0.00in /  0mm
10:35 56.8 °F /  13.8 °C 42.6 °F /  5.9 °C 29.89in /  1012.1hPa SW 3.0mph /  4.8km/h 8.0mph /  12.9km/h 59% 0.00in /  0mm
10:40 57.6 °F /  14.2 °C 43.8 °F /  6.6 °C 29.89in /  1012.1hPa South 3.0mph /  4.8km/h 8.0mph /  12.9km/h 60% 0.00in /  0mm
10:49 58.4 °F /  14.7 °C 42.3 °F /  5.7 °C 29.88in /  1011.7hPa NW 5.0mph /  8km/h 9.0mph /  14.5km/h 55% 0.00in /  0mm
10:55 57.9 °F /  14.4 °C 41.8 °F /  5.4 °C 29.88in /  1011.7hPa WNW 4.0mph /  6.4km/h 9.0mph /  14.5km/h 55% 0.00in /  0mm
11:04 57.7 °F /  14.3 °C 42.6 °F /  5.9 °C 29.88in /  1011.7hPa WNW 5.0mph /  8km/h 9.0mph /  14.5km/h 57% 0.00in /  0mm
11:09 59.0 °F /  15 °C 43.8 °F /  6.6 °C 29.87in /  1011.4hPa West 1.0mph /  1.6km/h 7.0mph /  11.3km/h 57% 0.00in /  0mm
11:14 60.0 °F /  15.6 °C 43.3 °F /  6.3 °C 29.87in /  1011.4hPa West 2.0mph /  3.2km/h 8.0mph /  12.9km/h 54% 0.00in /  0mm
11:19 61.3 °F /  16.3 °C 45.0 °F /  7.2 °C 29.87in /  1011.4hPa SSW 3.0mph /  4.8km/h 8.0mph /  12.9km/h 55% 0.00in /  0mm
11:24 62.4 °F /  16.9 °C 44.6 °F /  7 °C 29.87in /  1011.4hPa SW 3.0mph /  4.8km/h 8.0mph /  12.9km/h 52% 0.00in /  0mm
11:29 61.5 °F /  16.4 °C 42.7 °F /  5.9 °C 29.87in /  1011.4hPa SW 3.0mph /  4.8km/h 10.0mph /  16.1km/h 50% 0.00in /  0mm
11:34 60.3 °F /  15.7 °C 42.6 °F /  5.9 °C 29.88in /  1011.7hPa SSW 3.0mph /  4.8km/h 10.0mph /  16.1km/h 52% 0.00in /  0mm
11:39 60.0 °F /  15.6 °C 42.8 °F /  6 °C 29.87in /  1011.4hPa WSW 1.0mph /  1.6km/h 8.0mph /  12.9km/h 53% 0.00in /  0mm
11:44 59.0 °F /  15 °C 41.9 °F /  5.5 °C 29.87in /  1011.4hPa WNW 4.0mph /  6.4km/h 7.0mph /  11.3km/h 53% 0.00in /  0mm
11:49 57.7 °F /  14.3 °C 41.7 °F /  5.4 °C 29.87in /  1011.4hPa WNW 4.0mph /  6.4km/h 7.0mph /  11.3km/h 55% 0.00in /  0mm
11:54 56.6 °F /  13.7 °C 41.1 °F /  5.1 °C 29.87in /  1011.4hPa WNW 5.0mph /  8km/h 7.0mph /  11.3km/h 56% 0.00in /  0mm
11:59 56.0 °F /  13.3 °C 41.4 °F /  5.2 °C 29.87in /  1011.4hPa NW 4.0mph /  6.4km/h 8.0mph /  12.9km/h 58% 0.00in /  0mm
12:04 55.7 °F /  13.2 °C 41.6 °F /  5.3 °C 29.87in /  1011.4hPa WNW 2.0mph /  3.2km/h 8.0mph /  12.9km/h 59% 0.00in /  0mm
12:09 55.4 °F /  13 °C 41.8 °F /  5.4 °C 29.87in /  1011.4hPa Calm   6.0mph /  9.7km/h 60% 0.00in /  0mm
12:14 55.5 °F /  13.1 °C 41.4 °F /  5.2 °C 29.87in /  1011.4hPa Calm   5.0mph /  8km/h 59% 0.00in /  0mm
12:19 55.4 °F /  13 °C 41.3 °F /  5.2 °C 29.87in /  1011.4hPa WNW 1.0mph /  1.6km/h 5.0mph /  8km/h 59% 0.00in /  0mm
12:24 55.2 °F /  12.9 °C 41.1 °F /  5.1 °C 29.86in /  1011.1hPa WNW 4.0mph /  6.4km/h 6.0mph /  9.7km/h 59% 0.00in /  0mm
12:29 55.1 °F /  12.8 °C 41.5 °F /  5.3 °C 29.86in /  1011.1hPa WNW 3.0mph /  4.8km/h 6.0mph /  9.7km/h 60% 0.00in /  0mm
12:34 55.0 °F /  12.8 °C 41.4 °F /  5.2 °C 29.86in /  1011.1hPa Calm   5.0mph /  8km/h 60% 0.00in /  0mm
12:39 55.2 °F /  12.9 °C 41.1 °F /  5.1 °C 29.86in /  1011.1hPa Calm   5.0mph /  8km/h 59% 0.00in /  0mm
12:44 55.4 °F /  13 °C 41.3 °F /  5.2 °C 29.86in /  1011.1hPa Calm   3.0mph /  4.8km/h 59% 0.00in /  0mm
12:49 55.8 °F /  13.2 °C 41.7 °F /  5.4 °C 29.86in /  1011.1hPa Calm   1.0mph /  1.6km/h 59% 0.00in /  0mm
12:54 55.9 °F /  13.3 °C 41.8 °F /  5.4 °C 29.85in /  1010.7hPa WNW 1.0mph /  1.6km/h 5.0mph /  8km/h 59% 0.00in /  0mm
12:59 55.9 °F /  13.3 °C 41.3 °F /  5.2 °C 29.85in /  1010.7hPa Calm   5.0mph /  8km/h 58% 0.00in /  0mm
13:04 56.0 °F /  13.3 °C 41.9 °F /  5.5 °C 29.85in /  1010.7hPa Calm   4.0mph /  6.4km/h 59% 0.00in /  0mm
13:09 56.1 °F /  13.4 °C 42.0 °F /  5.6 °C 29.85in /  1010.7hPa Calm   1.0mph /  1.6km/h 59% 0.00in /  0mm
13:14 56.1 °F /  13.4 °C 42.0 °F /  5.6 °C 29.84in /  1010.4hPa Calm   1.0mph /  1.6km/h 59% 0.00in /  0mm
13:19 56.4 °F /  13.6 °C 42.3 °F /  5.7 °C 29.84in /  1010.4hPa Calm   2.0mph /  3.2km/h 59% 0.00in /  0mm
13:24 56.8 °F /  13.8 °C 42.2 °F /  5.7 °C 29.84in /  1010.4hPa Calm   3.0mph /  4.8km/h 58% 0.00in /  0mm
13:29 57.2 °F /  14 °C 42.6 °F /  5.9 °C 29.84in /  1010.4hPa WNW 2.0mph /  3.2km/h 3.0mph /  4.8km/h 58% 0.00in /  0mm
13:34 57.7 °F /  14.3 °C 42.6 °F /  5.9 °C 29.84in /  1010.4hPa WNW 1.0mph /  1.6km/h 4.0mph /  6.4km/h 57% 0.00in /  0mm
13:39 58.1 °F /  14.5 °C 43.0 °F /  6.1 °C 29.84in /  1010.4hPa Calm   5.0mph /  8km/h 57% 0.00in /  0mm
13:44 58.4 °F /  14.7 °C 43.7 °F /  6.5 °C 29.84in /  1010.4hPa WNW 1.0mph /  1.6km/h 5.0mph /  8km/h 58% 0.00in /  0mm
13:49 58.3 °F /  14.6 °C 42.7 °F /  5.9 °C 29.83in /  1010hPa Calm   6.0mph /  9.7km/h 56% 0.00in /  0mm
13:54 57.9 °F /  14.4 °C 43.2 °F /  6.2 °C 29.83in /  1010hPa WNW 1.0mph /  1.6km/h 6.0mph /  9.7km/h 58% 0.00in /  0mm
13:59 57.6 °F /  14.2 °C 42.5 °F /  5.8 °C 29.83in /  1010hPa WNW 1.0mph /  1.6km/h 5.0mph /  8km/h 57% 0.00in /  0mm
14:04 57.9 °F /  14.4 °C 43.7 °F /  6.5 °C 29.83in /  1010hPa Calm   4.0mph /  6.4km/h 59% 0.00in /  0mm
14:09 58.4 °F /  14.7 °C 44.1 °F /  6.7 °C 29.82in /  1009.7hPa Calm   1.0mph /  1.6km/h 59% 0.00in /  0mm
14:14 59.0 °F /  15 °C 43.8 °F /  6.6 °C 29.82in /  1009.7hPa Calm   1.0mph /  1.6km/h 57% 0.00in /  0mm
14:19 59.8 °F /  15.4 °C 43.6 °F /  6.4 °C 29.82in /  1009.7hPa NNE 1.0mph /  1.6km/h 5.0mph /  8km/h 55% 0.00in /  0mm
14:24 60.0 °F /  15.6 °C 44.3 °F /  6.8 °C 29.81in /  1009.4hPa NNE 1.0mph /  1.6km/h 5.0mph /  8km/h 56% 0.00in /  0mm
14:29 59.6 °F /  15.3 °C 43.4 °F /  6.3 °C 29.81in /  1009.4hPa NNE 1.0mph /  1.6km/h 4.0mph /  6.4km/h 55% 0.00in /  0mm
14:34 59.9 °F /  15.5 °C 44.2 °F /  6.8 °C 29.81in /  1009.4hPa Calm   4.0mph /  6.4km/h 56% 0.00in /  0mm
14:39 60.9 °F /  16.1 °C 44.2 °F /  6.8 °C 29.81in /  1009.4hPa NNE 1.0mph /  1.6km/h 3.0mph /  4.8km/h 54% 0.00in /  0mm
14:45 62.0 °F /  16.7 °C 45.7 °F /  7.6 °C 29.80in /  1009hPa Calm   3.0mph /  4.8km/h 55% 0.00in /  0mm
14:54 64.0 °F /  17.8 °C 45.0 °F /  7.2 °C 29.80in /  1009hPa North 1.0mph /  1.6km/h 3.0mph /  4.8km/h 50% 0.00in /  0mm
14:59 64.2 °F /  17.9 °C 46.2 °F /  7.9 °C 29.79in /  1008.7hPa Calm   3.0mph /  4.8km/h 52% 0.00in /  0mm
15:05 63.9 °F /  17.7 °C 45.4 °F /  7.4 °C 29.79in /  1008.7hPa East 2.0mph /  3.2km/h 6.0mph /  9.7km/h 51% 0.00in /  0mm
15:14 63.2 °F /  17.3 °C 45.3 °F /  7.4 °C 29.78in /  1008.4hPa Calm   5.0mph /  8km/h 52% 0.00in /  0mm
15:19 62.8 °F /  17.1 °C 44.9 °F /  7.2 °C 29.78in /  1008.4hPa Calm   1.0mph /  1.6km/h 52% 0.00in /  0mm
15:24 62.7 °F /  17.1 °C 44.8 °F /  7.1 °C 29.78in /  1008.4hPa East 1.0mph /  1.6km/h 3.0mph /  4.8km/h 52% 0.00in /  0mm
15:29 62.9 °F /  17.2 °C 45.0 °F /  7.2 °C 29.78in /  1008.4hPa Calm   3.0mph /  4.8km/h 52% 0.00in /  0mm
15:34 63.4 °F /  17.4 °C 46.0 °F /  7.8 °C 29.77in /  1008hPa Calm   3.0mph /  4.8km/h 53% 0.00in /  0mm
15:44 64.7 °F /  18.2 °C 45.6 °F /  7.6 °C 29.77in /  1008hPa ENE 1.0mph /  1.6km/h 5.0mph /  8km/h 50% 0.00in /  0mm
15:50 64.8 °F /  18.2 °C 47.3 °F /  8.5 °C 29.77in /  1008hPa ENE 1.0mph /  1.6km/h 5.0mph /  8km/h 53% 0.00in /  0mm
15:55 65.0 °F /  18.3 °C 45.9 °F /  7.7 °C 29.76in /  1007.7hPa Calm   3.0mph /  4.8km/h 50% 0.00in /  0mm
16:05 64.7 °F /  18.2 °C 46.2 °F /  7.9 °C 29.76in /  1007.7hPa ENE 2.0mph /  3.2km/h 6.0mph /  9.7km/h 51% 0.00in /  0mm
16:14 65.0 °F /  18.3 °C 47.0 °F /  8.3 °C 29.75in /  1007.3hPa Calm   5.0mph /  8km/h 52% 0.00in /  0mm
16:19 66.0 °F /  18.9 °C 48.4 °F /  9.1 °C 29.75in /  1007.3hPa Calm   4.0mph /  6.4km/h 53% 0.00in /  0mm
16:24 67.4 °F /  19.7 °C 47.6 °F /  8.7 °C 29.75in /  1007.3hPa Calm   3.0mph /  4.8km/h 49% 0.00in /  0mm
16:29 68.0 °F /  20 °C 47.6 °F /  8.7 °C 29.75in /  1007.3hPa Calm   3.0mph /  4.8km/h 48% 0.00in /  0mm
16:35 68.6 °F /  20.3 °C 47.0 °F /  8.3 °C 29.75in /  1007.3hPa SW 4.0mph /  6.4km/h 6.0mph /  9.7km/h 46% 0.00in /  0mm
16:44 69.1 °F /  20.6 °C 48.0 °F /  8.9 °C 29.74in /  1007hPa South 4.0mph /  6.4km/h 8.0mph /  12.9km/h 47% 0.00in /  0mm
16:49 69.9 °F /  21.1 °C 47.6 °F /  8.7 °C 29.74in /  1007hPa SW 2.0mph /  3.2km/h 8.0mph /  12.9km/h 45% 0.00in /  0mm
16:54 71.0 °F /  21.7 °C 48.6 °F /  9.2 °C 29.74in /  1007hPa Calm   8.0mph /  12.9km/h 45% 0.00in /  0mm
16:59 71.7 °F /  22.1 °C 49.2 °F /  9.6 °C 29.74in /  1007hPa Calm   5.0mph /  8km/h 45% 0.00in /  0mm
17:04 72.2 °F /  22.3 °C 48.5 °F /  9.2 °C 29.73in /  1006.7hPa SW 1.0mph /  1.6km/h 5.0mph /  8km/h 43% 0.00in /  0mm
17:09 72.6 °F /  22.6 °C 48.8 °F /  9.3 °C 29.73in /  1006.7hPa SW 2.0mph /  3.2km/h 5.0mph /  8km/h 43% 0.00in /  0mm
17:14 72.4 °F /  22.4 °C 48.7 °F /  9.3 °C 29.73in /  1006.7hPa Calm   5.0mph /  8km/h 43% 0.00in /  0mm
17:19 71.3 °F /  21.8 °C 48.9 °F /  9.4 °C 29.73in /  1006.7hPa Calm   1.0mph /  1.6km/h 45% 0.00in /  0mm
17:24 70.0 °F /  21.1 °C 48.3 °F /  9.1 °C 29.73in /  1006.7hPa NNW 1.0mph /  1.6km/h 4.0mph /  6.4km/h 46% 0.00in /  0mm
17:29 69.3 °F /  20.7 °C 48.2 °F /  9 °C 29.73in /  1006.7hPa Calm   4.0mph /  6.4km/h 47% 0.00in /  0mm
17:34 68.8 °F /  20.4 °C 48.3 °F /  9.1 °C 29.72in /  1006.3hPa Calm   5.0mph /  8km/h 48% 0.00in /  0mm
17:40 68.6 °F /  20.3 °C 48.7 °F /  9.3 °C 29.72in /  1006.3hPa Calm   5.0mph /  8km/h 49% 0.00in /  0mm
17:49 69.4 °F /  20.8 °C 49.4 °F /  9.7 °C 29.72in /  1006.3hPa Calm   5.0mph /  8km/h 49% 0.00in /  0mm
17:54 69.3 °F /  20.7 °C 48.8 °F /  9.3 °C 29.72in /  1006.3hPa Calm   8.0mph /  12.9km/h 48% 0.00in /  0mm
18:00 68.0 °F /  20 °C 48.7 °F /  9.3 °C 29.72in /  1006.3hPa Calm   8.0mph /  12.9km/h 50% 0.00in /  0mm
18:10 65.3 °F /  18.5 °C 47.2 °F /  8.4 °C 29.73in /  1006.7hPa NNW 4.0mph /  6.4km/h 6.0mph /  9.7km/h 52% 0.00in /  0mm
18:19 62.5 °F /  16.9 °C 46.1 °F /  7.8 °C 29.72in /  1006.3hPa NW 2.0mph /  3.2km/h 10.0mph /  16.1km/h 55% 0.00in /  0mm
18:25 61.1 °F /  16.2 °C 46.2 °F /  7.9 °C 29.72in /  1006.3hPa Calm   10.0mph /  16.1km/h 58% 0.00in /  0mm
18:35 60.7 °F /  15.9 °C 46.3 °F /  7.9 °C 29.72in /  1006.3hPa Calm   1.0mph /  1.6km/h 59% 0.00in /  0mm
18:45 60.1 °F /  15.6 °C 46.2 °F /  7.9 °C 29.72in /  1006.3hPa Calm   5.0mph /  8km/h 60% 0.00in /  0mm
18:50 59.9 °F /  15.5 °C 46.0 °F /  7.8 °C 29.72in /  1006.3hPa Calm   3.0mph /  4.8km/h 60% 0.00in /  0mm
18:59 59.0 °F /  15 °C 46.0 °F /  7.8 °C 29.72in /  1006.3hPa Calm   6.0mph /  9.7km/h 62% 0.00in /  0mm
19:04 58.8 °F /  14.9 °C 45.8 °F /  7.7 °C 29.71in /  1006hPa Calm   4.0mph /  6.4km/h 62% 0.00in /  0mm
19:09 58.6 °F /  14.8 °C 45.6 °F /  7.6 °C 29.71in /  1006hPa Calm   1.0mph /  1.6km/h 62% 0.00in /  0mm
19:14 58.5 °F /  14.7 °C 46.0 °F /  7.8 °C 29.71in /  1006hPa Calm     63% 0.00in /  0mm
19:19 58.3 °F /  14.6 °C 45.8 °F /  7.7 °C 29.71in /  1006hPa Calm     63% 0.00in /  0mm
19:24 57.7 °F /  14.3 °C 45.2 °F /  7.3 °C 29.71in /  1006hPa Calm     63% 0.00in /  0mm
19:30 57.2 °F /  14 °C 45.6 °F /  7.6 °C 29.71in /  1006hPa Calm   1.0mph /  1.6km/h 65% 0.00in /  0mm
19:40 55.9 °F /  13.3 °C 45.1 °F /  7.3 °C 29.72in /  1006.3hPa NW 1.0mph /  1.6km/h 2.0mph /  3.2km/h 67% 0.00in /  0mm
19:49 54.6 °F /  12.6 °C 44.6 °F /  7 °C 29.71in /  1006hPa Calm     69% 0.00in /  0mm
19:54 54.1 °F /  12.3 °C 44.5 °F /  6.9 °C 29.72in /  1006.3hPa Calm     70% 0.00in /  0mm
19:59 53.6 °F /  12 °C 44.4 °F /  6.9 °C 29.72in /  1006.3hPa Calm     71% 0.00in /  0mm
20:04 53.1 °F /  11.7 °C 44.3 °F /  6.8 °C 29.72in /  1006.3hPa NW 1.0mph /  1.6km/h 3.0mph /  4.8km/h 72% 0.00in /  0mm
20:09 52.7 °F /  11.5 °C 43.9 °F /  6.6 °C 29.72in /  1006.3hPa Calm   3.0mph /  4.8km/h 72% 0.00in /  0mm
20:14 52.4 °F /  11.3 °C 44.0 °F /  6.7 °C 29.72in /  1006.3hPa Calm   3.0mph /  4.8km/h 73% 0.00in /  0mm
20:19 52.1 °F /  11.2 °C 44.1 °F /  6.7 °C 29.72in /  1006.3hPa Calm     74% 0.00in /  0mm
20:24 51.7 °F /  10.9 °C 44.0 °F /  6.7 °C 29.72in /  1006.3hPa Calm     75% 0.00in /  0mm
20:29 51.4 °F /  10.8 °C 43.7 °F /  6.5 °C 29.72in /  1006.3hPa Calm   1.0mph /  1.6km/h 75% 0.00in /  0mm
20:34 51.1 °F /  10.6 °C 43.8 °F /  6.6 °C 29.72in /  1006.3hPa Calm   1.0mph /  1.6km/h 76% 0.00in /  0mm
20:39 50.7 °F /  10.4 °C 43.4 °F /  6.3 °C 29.72in /  1006.3hPa Calm   1.0mph /  1.6km/h 76% 0.00in /  0mm
20:44 50.4 °F /  10.2 °C 43.5 °F /  6.4 °C 29.72in /  1006.3hPa Calm   1.0mph /  1.6km/h 77% 0.00in /  0mm
20:49 50.1 °F /  10.1 °C 43.2 °F /  6.2 °C 29.72in /  1006.3hPa Calm     77% 0.00in /  0mm
20:54 49.8 °F /  9.9 °C 43.2 °F /  6.2 °C 29.72in /  1006.3hPa Calm     78% 0.00in /  0mm
20:59 49.6 °F /  9.8 °C 43.4 °F /  6.3 °C 29.72in /  1006.3hPa Calm   2.0mph /  3.2km/h 79% 0.00in /  0mm
21:04 49.4 °F /  9.7 °C 43.2 °F /  6.2 °C 29.72in /  1006.3hPa Calm   2.0mph /  3.2km/h 79% 0.00in /  0mm
21:09 49.2 °F /  9.6 °C 43.3 °F /  6.3 °C 29.71in /  1006hPa Calm     80% 0.00in /  0mm
21:14 48.8 °F /  9.3 °C 42.9 °F /  6.1 °C 29.72in /  1006.3hPa Calm     80% 0.00in /  0mm
21:19 48.5 °F /  9.2 °C 42.9 °F /  6.1 °C 29.72in /  1006.3hPa Calm     81% 0.00in /  0mm
21:24 48.3 °F /  9.1 °C 42.7 °F /  5.9 °C 29.72in /  1006.3hPa Calm     81% 0.00in /  0mm
21:29 48.1 °F /  8.9 °C 42.6 °F /  5.9 °C 29.72in /  1006.3hPa Calm     81% 0.00in /  0mm
21:34 48.0 °F /  8.9 °C 42.8 °F /  6 °C 29.72in /  1006.3hPa Calm     82% 0.00in /  0mm
21:39 47.8 °F /  8.8 °C 42.6 °F /  5.9 °C 29.72in /  1006.3hPa Calm     82% 0.00in /  0mm
21:44 47.6 °F /  8.7 °C 42.7 °F /  5.9 °C 29.72in /  1006.3hPa Calm     83% 0.00in /  0mm
21:49 47.5 °F /  8.6 °C 42.6 °F /  5.9 °C 29.71in /  1006hPa Calm     83% 0.00in /  0mm
21:54 47.4 °F /  8.6 °C 42.8 °F /  6 °C 29.71in /  1006hPa Calm     84% 0.00in /  0mm
21:59 47.3 °F /  8.5 °C 42.7 °F /  5.9 °C 29.71in /  1006hPa Calm     84% 0.00in /  0mm
22:04 47.1 °F /  8.4 °C 42.5 °F /  5.8 °C 29.71in /  1006hPa Calm     84% 0.00in /  0mm
22:09 47.0 °F /  8.3 °C 42.7 °F /  5.9 °C 29.71in /  1006hPa Calm     85% 0.00in /  0mm
22:14 47.0 °F /  8.3 °C 42.7 °F /  5.9 °C 29.71in /  1006hPa Calm     85% 0.00in /  0mm
22:19 46.9 °F /  8.3 °C 42.6 °F /  5.9 °C 29.70in /  1005.6hPa Calm   3.0mph /  4.8km/h 85% 0.00in /  0mm
22:24 47.4 °F /  8.6 °C 43.4 °F /  6.3 °C 29.70in /  1005.6hPa SSW 1.0mph /  1.6km/h 7.0mph /  11.3km/h 86% 0.00in /  0mm
22:29 48.1 °F /  8.9 °C 43.8 °F /  6.6 °C 29.70in /  1005.6hPa SSW 1.0mph /  1.6km/h 7.0mph /  11.3km/h 85% 0.00in /  0mm
22:35 48.7 °F /  9.3 °C 44.1 °F /  6.7 °C 29.70in /  1005.6hPa SSW 4.0mph /  6.4km/h 7.0mph /  11.3km/h 84% 0.00in /  0mm
22:44 48.8 °F /  9.3 °C 43.6 °F /  6.4 °C 29.70in /  1005.6hPa SW 1.0mph /  1.6km/h 6.0mph /  9.7km/h 82% 0.00in /  0mm
22:50 48.7 °F /  9.3 °C 43.5 °F /  6.4 °C 29.69in /  1005.3hPa SSW 2.0mph /  3.2km/h 6.0mph /  9.7km/h 82% 0.00in /  0mm
22:59 48.7 °F /  9.3 °C 43.5 °F /  6.4 °C 29.69in /  1005.3hPa SSW 2.0mph /  3.2km/h 7.0mph /  11.3km/h 82% 0.00in /  0mm
23:05 49.3 °F /  9.6 °C 44.0 °F /  6.7 °C 29.69in /  1005.3hPa SSW 2.0mph /  3.2km/h 8.0mph /  12.9km/h 82% 0.00in /  0mm
23:14 50.2 °F /  10.1 °C 44.3 °F /  6.8 °C 29.69in /  1005.3hPa SSW 2.0mph /  3.2km/h 6.0mph /  9.7km/h 80% 0.00in /  0mm
23:19 50.4 °F /  10.2 °C 44.1 °F /  6.7 °C 29.69in /  1005.3hPa Calm   6.0mph /  9.7km/h 79% 0.00in /  0mm
23:24 50.6 °F /  10.3 °C 44.3 °F /  6.8 °C 29.69in /  1005.3hPa SW 3.0mph /  4.8km/h 6.0mph /  9.7km/h 79% 0.00in /  0mm
23:29 51.0 °F /  10.6 °C 44.4 °F /  6.9 °C 29.68in /  1005hPa SW 3.0mph /  4.8km/h 8.0mph /  12.9km/h 78% 0.00in /  0mm
23:34 51.5 °F /  10.8 °C 44.5 °F /  6.9 °C 29.68in /  1005hPa SW 1.0mph /  1.6km/h 8.0mph /  12.9km/h 77% 0.00in /  0mm
23:39 52.2 °F /  11.2 °C 44.9 °F /  7.2 °C 29.68in /  1005hPa SW 2.0mph /  3.2km/h 8.0mph /  12.9km/h 76% 0.00in /  0mm
23:44 53.6 °F /  12 °C 45.5 °F /  7.5 °C 29.68in /  1005hPa SSW 9.0mph /  14.5km/h 18.0mph /  29km/h 74% 0.00in /  0mm
23:49 55.0 °F /  12.8 °C 46.5 °F /  8.1 °C 29.68in /  1005hPa SSW 5.0mph /  8km/h 18.0mph /  29km/h 73% 0.00in /  0mm
23:54 55.7 °F /  13.2 °C 46.8 °F /  8.2 °C 29.68in /  1005hPa SSW 5.0mph /  8km/h 15.0mph /  24.1km/h 72% 0.00in /  0mm
23:59 56.1 °F /  13.4 °C 46.8 °F /  8.2 °C 29.68in /  1005hPa SSW 5.0mph /  8km/h 17.0mph /  27.4km/h 71% 0.00in /  0mm
Westford Weather
Compliments of Weather Underground

 
 
Current Radar Loop:

Copyright © WestfordWeather.net 2007-2014. All rights reserved.